F/V J. Louis Vincent — FQBL — position and weather

sailwx.info

Track history (hours):
 
Tides and Currents Weather Stations Pressure Air Temp Water Temp Dewpoint Dewpoint Depression Visibility Wind Speed Wind Dir Waves Ship Positions

F/V J. Louis Vincent

Last reported at 2014-Aug-21 11:33 UTC. Time now 2014-Aug-21 12:10 UTC.
Position N 43°08' E 004°00'.

Length 29 m.

Type: Fishing. MMSI: 227146600.

Date/timePositionNaut miles runAvg speedWind from/ knotsBaromVisibWave heightAir tempDewpointWater temp
2014-Aug-21 11:33N 43°08' E 004°00'5 4.6
2014-Aug-21 10:29N 43°05' E 004°05'12 3.0
2014-Aug-21 06:26N 42°56' E 004°16'4 4.6
2014-Aug-21 05:33N 42°58' E 004°12'5 4.6
2014-Aug-21 04:31N 42°60' E 004°06'4 4.4
2014-Aug-21 03:30N 43°01' E 003°60'26 2.6
2014-Aug-20 17:28N 43°24' E 003°42'0 0.1
2014-Aug-20 16:32N 43°24' E 003°42'0 0.4
2014-Aug-20 15:28N 43°24' E 003°42'6 5.9
2014-Aug-20 14:31N 43°18' E 003°44'1110.5
2014-Aug-20 13:30N 43°08' E 003°46'4 4.0
2014-Aug-20 12:32N 43°04' E 003°47'4 4.6
2014-Aug-20 11:33N 42°60' E 003°50'4 4.2
2014-Aug-20 10:33N 42°56' E 003°53'4 4.2
2014-Aug-20 09:33N 42°58' E 003°48'5 4.5
2014-Aug-20 08:33N 42°57' E 003°42'4 4.5
2014-Aug-20 07:33N 42°54' E 003°38'2 2.3
2014-Aug-20 06:32N 42°52' E 003°37'4 3.7
2014-Aug-20 05:32N 42°55' E 003°39'4 4.4
2014-Aug-20 04:33N 42°58' E 003°43'5 4.5
2014-Aug-20 03:33N 43°03' E 003°42'5 4.4
2014-Aug-20 02:32N 43°08' E 003°42'17 1.6
2014-Aug-19 16:04N 43°24' E 003°42'0 0.8
2014-Aug-19 15:30N 43°24' E 003°42'0 0.4
2014-Aug-19 14:22N 43°24' E 003°42'14 7.6
2014-Aug-19 12:33N 43°10' E 003°40'4 4.4
2014-Aug-19 11:33N 43°06' E 003°40'5 4.6
2014-Aug-19 10:29N 43°01' E 003°40'2 1.7
2014-Aug-19 09:33N 42°59' E 003°40'5 4.6
2014-Aug-19 08:33N 42°59' E 003°46'5 4.5
2014-Aug-19 07:33N 42°59' E 003°52'3 2.4
2014-Aug-19 06:22N 42°57' E 003°55'4 3.7
2014-Aug-19 05:24N 42°58' E 003°51'4 4.4
2014-Aug-19 04:32N 42°60' E 003°46'4 4.4
2014-Aug-19 03:33N 43°04' E 003°43'5 4.5
2014-Aug-19 02:33N 43°08' E 003°42'4 0.3
2014-Aug-18 11:33N 43°06' E 003°46'5 4.5
2014-Aug-18 10:32N 43°01' E 003°47'6 3.9
2014-Aug-18 09:05N 42°59' E 003°54'2 4.6
2014-Aug-18 08:33N 42°59' E 003°58'6 2.4
2014-Aug-18 06:11N 42°58' E 004°05'3 4.4
2014-Aug-18 05:26N 42°59' E 004°01'5 4.4
2014-Aug-18 04:22N 43°02' E 003°55'4 4.5
2014-Aug-18 03:29N 43°04' E 003°51'  
2014-Aug-14 17:09N 43°24' E 003°42'1 0.9
2014-Aug-14 16:33N 43°24' E 003°43'1 0.6
2014-Aug-14 15:33N 43°24' E 003°42'0 0.0
2014-Aug-14 14:27N 43°24' E 003°42'5 6.0
2014-Aug-14 13:33N 43°19' E 003°44'7 6.7
2014-Aug-14 12:33N 43°12' E 003°47'5 4.6
2014-Aug-14 11:33N 43°08' E 003°50'5 4.5
2014-Aug-14 10:33N 43°04' E 003°52'3 2.8
2014-Aug-14 09:33N 43°02' E 003°54'5 4.6
2014-Aug-14 08:34N 43°01' E 004°00'5 4.5
2014-Aug-14 07:33N 42°59' E 004°06'2 1.5
2014-Aug-14 06:32N 42°58' E 004°07'4 4.1
2014-Aug-14 05:33N 42°59' E 004°02'4 4.4
2014-Aug-14 04:33N 43°01' E 003°57'4 4.4
2014-Aug-14 03:33N 43°04' E 003°52'4 4.4
2014-Aug-14 02:34N 43°08' E 003°49'17 1.8
2014-Aug-13 17:17N 43°24' E 003°42'0 0.6
2014-Aug-13 16:29N 43°24' E 003°42'0 0.3
2014-Aug-13 15:29N 43°24' E 003°42'13 6.5
2014-Aug-13 13:33N 43°11' E 003°44'5 4.6
2014-Aug-13 12:33N 43°07' E 003°43'8 3.3
2014-Aug-13 10:04N 42°59' E 003°41'2 4.5
2014-Aug-13 09:33N 42°59' E 003°44'4 4.5
2014-Aug-13 08:33N 42°59' E 003°50'2 0.7
2014-Aug-13 05:33N 42°59' E 003°53'4 4.4
2014-Aug-13 04:32N 43°00' E 003°47'5 4.5
2014-Aug-13 03:31N 43°04' E 003°43'4 4.4
2014-Aug-13 02:33N 43°08' E 003°41'16 1.6
2014-Aug-12 16:15N 43°24' E 003°42'0 0.6
2014-Aug-12 15:30N 43°24' E 003°42'0 0.0
2014-Aug-12 14:29N 43°24' E 003°42'25 4.7
2014-Aug-12 09:07N 42°60' E 003°52'2 0.6
2014-Aug-12 05:24N 42°60' E 003°55'4 4.4
2014-Aug-12 04:33N 43°01' E 003°50'5 4.4
2014-Aug-12 03:28N 43°04' E 003°45'4 4.5
2014-Aug-12 02:33N 43°07' E 003°43'17 1.6
2014-Aug-11 16:28N 43°24' E 003°42'8 2.5
2014-Aug-11 13:29N 43°19' E 003°50'5 4.8
2014-Aug-11 12:28N 43°17' E 003°56'  
Track history (hours):
 
Tides and Currents Weather Stations Pressure Air Temp Water Temp Dewpoint Dewpoint Depression Visibility Wind Speed Wind Dir Waves Ship Positions

F/V J. Louis Vincent

Last reported at 2014-Aug-21 11:33 UTC. Time now 2014-Aug-21 12:11 UTC.
Position N 43°08' E 004°00'.

Length 29 m.

Type: Fishing. MMSI: 227146600.

Date/timePositionNaut miles runAvg speedWind from/ knotsBaromVisibWave heightAir tempDewpointWater temp
2014-Aug-21 11:33N 43°08' E 004°00'5 4.6
2014-Aug-21 10:29N 43°05' E 004°05'12 3.0
2014-Aug-21 06:26N 42°56' E 004°16'4 4.6
2014-Aug-21 05:33N 42°58' E 004°12'5 4.6
2014-Aug-21 04:31N 42°60' E 004°06'4 4.4
2014-Aug-21 03:30N 43°01' E 003°60'26 2.6
2014-Aug-20 17:28N 43°24' E 003°42'0 0.1
2014-Aug-20 16:32N 43°24' E 003°42'0 0.4
2014-Aug-20 15:28N 43°24' E 003°42'6 5.9
2014-Aug-20 14:31N 43°18' E 003°44'1110.5
2014-Aug-20 13:30N 43°08' E 003°46'4 4.0
2014-Aug-20 12:32N 43°04' E 003°47'4 4.6
2014-Aug-20 11:33N 42°60' E 003°50'4 4.2
2014-Aug-20 10:33N 42°56' E 003°53'4 4.2
2014-Aug-20 09:33N 42°58' E 003°48'5 4.5
2014-Aug-20 08:33N 42°57' E 003°42'4 4.5
2014-Aug-20 07:33N 42°54' E 003°38'2 2.3
2014-Aug-20 06:32N 42°52' E 003°37'4 3.7
2014-Aug-20 05:32N 42°55' E 003°39'4 4.4
2014-Aug-20 04:33N 42°58' E 003°43'5 4.5
2014-Aug-20 03:33N 43°03' E 003°42'5 4.4
2014-Aug-20 02:32N 43°08' E 003°42'17 1.6
2014-Aug-19 16:04N 43°24' E 003°42'0 0.8
2014-Aug-19 15:30N 43°24' E 003°42'0 0.4
2014-Aug-19 14:22N 43°24' E 003°42'14 7.6
2014-Aug-19 12:33N 43°10' E 003°40'4 4.4
2014-Aug-19 11:33N 43°06' E 003°40'5 4.6
2014-Aug-19 10:29N 43°01' E 003°40'2 1.7
2014-Aug-19 09:33N 42°59' E 003°40'5 4.6
2014-Aug-19 08:33N 42°59' E 003°46'5 4.5
2014-Aug-19 07:33N 42°59' E 003°52'3 2.4
2014-Aug-19 06:22N 42°57' E 003°55'4 3.7
2014-Aug-19 05:24N 42°58' E 003°51'4 4.4
2014-Aug-19 04:32N 42°60' E 003°46'4 4.4
2014-Aug-19 03:33N 43°04' E 003°43'5 4.5
2014-Aug-19 02:33N 43°08' E 003°42'4 0.3
2014-Aug-18 11:33N 43°06' E 003°46'5 4.5
2014-Aug-18 10:32N 43°01' E 003°47'6 3.9
2014-Aug-18 09:05N 42°59' E 003°54'2 4.6
2014-Aug-18 08:33N 42°59' E 003°58'6 2.4
2014-Aug-18 06:11N 42°58' E 004°05'3 4.4
2014-Aug-18 05:26N 42°59' E 004°01'5 4.4
2014-Aug-18 04:22N 43°02' E 003°55'4 4.5
2014-Aug-18 03:29N 43°04' E 003°51'  
2014-Aug-14 17:09N 43°24' E 003°42'1 0.9
2014-Aug-14 16:33N 43°24' E 003°43'1 0.6
2014-Aug-14 15:33N 43°24' E 003°42'0 0.0
2014-Aug-14 14:27N 43°24' E 003°42'5 6.0
2014-Aug-14 13:33N 43°19' E 003°44'7 6.7
2014-Aug-14 12:33N 43°12' E 003°47'5 4.6
2014-Aug-14 11:33N 43°08' E 003°50'5 4.5
2014-Aug-14 10:33N 43°04' E 003°52'3 2.8
2014-Aug-14 09:33N 43°02' E 003°54'5 4.6
2014-Aug-14 08:34N 43°01' E 004°00'5 4.5
2014-Aug-14 07:33N 42°59' E 004°06'2 1.5
2014-Aug-14 06:32N 42°58' E 004°07'4 4.1
2014-Aug-14 05:33N 42°59' E 004°02'4 4.4
2014-Aug-14 04:33N 43°01' E 003°57'4 4.4
2014-Aug-14 03:33N 43°04' E 003°52'4 4.4
2014-Aug-14 02:34N 43°08' E 003°49'17 1.8
2014-Aug-13 17:17N 43°24' E 003°42'0 0.6
2014-Aug-13 16:29N 43°24' E 003°42'0 0.3
2014-Aug-13 15:29N 43°24' E 003°42'13 6.5
2014-Aug-13 13:33N 43°11' E 003°44'5 4.6
2014-Aug-13 12:33N 43°07' E 003°43'8 3.3
2014-Aug-13 10:04N 42°59' E 003°41'2 4.5
2014-Aug-13 09:33N 42°59' E 003°44'4 4.5
2014-Aug-13 08:33N 42°59' E 003°50'2 0.7
2014-Aug-13 05:33N 42°59' E 003°53'4 4.4
2014-Aug-13 04:32N 43°00' E 003°47'5 4.5
2014-Aug-13 03:31N 43°04' E 003°43'4 4.4
2014-Aug-13 02:33N 43°08' E 003°41'16 1.6
2014-Aug-12 16:15N 43°24' E 003°42'0 0.6
2014-Aug-12 15:30N 43°24' E 003°42'0 0.0
2014-Aug-12 14:29N 43°24' E 003°42'25 4.7
2014-Aug-12 09:07N 42°60' E 003°52'2 0.6
2014-Aug-12 05:24N 42°60' E 003°55'4 4.4
2014-Aug-12 04:33N 43°01' E 003°50'5 4.4
2014-Aug-12 03:28N 43°04' E 003°45'4 4.5
2014-Aug-12 02:33N 43°07' E 003°43'17 1.6
2014-Aug-11 16:28N 43°24' E 003°42'8 2.5
2014-Aug-11 13:29N 43°19' E 003°50'5 4.8
2014-Aug-11 12:28N 43°17' E 003°56'  

Dump ship's entire track history